Time;durP1;ratioP1;P1;durP2;ratioP2;P2;SDS_P1;SDS_P2;PMS_P1;PMS_P2;Temp;Humidity;BMP_temperature;BMP_pressure;BME280_temperature;BME280_humidity;BME280_pressure;Samples;Min_cycle;Max_cycle;Signal;HPM_P1;HPM_P2
2021/08/18 00:00:18;;;;;;;6.77;4.13;;;;;;;13.47;79.75;100541.94;5061624;28;20607;-69
2021/08/18 00:02:44;;;;;;;8.77;4.50;;;;;;;13.49;80.42;100542.75;5064489;28;20230;-71
2021/08/18 00:05:14;;;;;;;7.27;4.70;;;;;;;13.50;80.28;100536.56;5058846;28;20208;-70
2021/08/18 00:07:43;;;;;;;7.63;4.33;;;;;;;13.49;80.19;100540.13;5064220;28;20667;-71
2021/08/18 00:10:10;;;;;;;8.20;4.80;;;;;;;13.52;80.62;100534.75;5060305;28;20224;-70
2021/08/18 00:12:37;;;;;;;6.57;4.37;;;;;;;13.50;79.76;100533.13;5066127;28;20202;-71
2021/08/18 00:15:05;;;;;;;7.67;4.70;;;;;;;13.51;79.50;100534.81;5059522;28;20217;-71
2021/08/18 00:17:32;;;;;;;5.73;3.77;;;;;;;13.52;79.37;100534.75;5062468;28;20665;-72
2021/08/18 00:19:58;;;;;;;10.27;3.83;;;;;;;13.50;79.36;100533.97;5061389;28;20515;-71
2021/08/18 00:22:24;;;;;;;8.00;4.20;;;;;;;13.49;78.51;100536.63;5062436;28;20226;-70
2021/08/18 00:24:52;;;;;;;7.97;4.30;;;;;;;13.50;78.87;100547.06;5061116;28;20206;-70
2021/08/18 00:27:18;;;;;;;6.70;3.87;;;;;;;13.48;78.41;100542.81;5063586;28;20210;-70
2021/08/18 00:29:45;;;;;;;5.63;3.53;;;;;;;13.47;78.06;100546.31;5060098;28;20209;-70
2021/08/18 00:32:11;;;;;;;6.37;3.60;;;;;;;13.46;77.37;100548.09;5057851;28;20302;-70
2021/08/18 00:34:38;;;;;;;6.90;4.10;;;;;;;13.49;78.18;100541.88;5061986;28;20263;-70
2021/08/18 00:37:05;;;;;;;4.97;3.17;;;;;;;13.47;78.29;100552.41;5058168;28;20217;-71
2021/08/18 00:39:31;;;;;;;6.50;3.70;;;;;;;13.42;78.56;100547.38;5057267;28;20228;-70
2021/08/18 00:41:59;;;;;;;5.30;3.20;;;;;;;13.40;77.70;100550.94;5059585;28;20629;-69
2021/08/18 00:44:26;;;;;;;5.93;3.60;;;;;;;13.41;78.45;100540.41;5064890;28;20207;-70
2021/08/18 00:46:54;;;;;;;5.60;3.83;;;;;;;13.38;78.33;100539.69;5059133;28;20231;-70
2021/08/18 00:49:22;;;;;;;6.63;3.43;;;;;;;13.35;77.49;100542.41;5067510;28;20206;-71
2021/08/18 00:51:50;;;;;;;4.73;3.50;;;;;;;13.29;77.09;100540.00;5061002;28;20247;-71
2021/08/18 00:54:17;;;;;;;5.83;3.63;;;;;;;13.27;77.49;100554.00;5062234;28;20214;-70
2021/08/18 00:56:45;;;;;;;6.10;3.30;;;;;;;13.29;78.14;100548.72;5064277;28;20435;-71
2021/08/18 00:59:14;;;;;;;5.43;3.20;;;;;;;13.23;77.68;100556.81;5060918;28;20205;-71
2021/08/18 01:01:40;;;;;;;5.80;3.37;;;;;;;13.21;78.15;100549.03;5060162;28;20224;-71
2021/08/18 01:04:07;;;;;;;5.23;3.50;;;;;;;13.15;77.82;100556.25;5058631;28;20699;-71
2021/08/18 01:06:38;;;;;;;4.93;3.43;;;;;;;13.11;78.36;100546.81;5063574;28;20202;-71
2021/08/18 01:09:05;;;;;;;6.13;3.70;;;;;;;13.06;78.65;100549.59;5059299;28;20209;-71
2021/08/18 01:11:34;;;;;;;7.90;3.60;;;;;;;12.99;78.95;100548.13;5067161;28;20969;-71
2021/08/18 01:14:01;;;;;;;5.63;3.10;;;;;;;12.98;79.49;100551.63;5065836;28;20204;-71
2021/08/18 01:16:29;;;;;;;7.37;4.07;;;;;;;12.98;79.91;100549.91;5061500;28;20532;-71
2021/08/18 01:18:55;;;;;;;5.93;3.30;;;;;;;12.96;79.57;100553.47;5060343;28;20211;-73
2021/08/18 01:21:21;;;;;;;5.73;3.80;;;;;;;12.95;80.22;100546.53;5062478;28;20256;-74
2021/08/18 01:23:48;;;;;;;4.93;3.30;;;;;;;12.91;79.48;100551.03;5070334;28;20209;-71
2021/08/18 01:26:14;;;;;;;4.50;3.10;;;;;;;12.93;79.84;100554.44;5061573;28;20578;-70
2021/08/18 01:28:42;;;;;;;6.50;3.40;;;;;;;12.91;79.59;100551.03;5071141;28;20212;-70
2021/08/18 01:31:08;;;;;;;5.90;3.10;;;;;;;12.90;80.63;100543.25;5060371;28;20223;-71
2021/08/18 01:33:36;;;;;;;5.87;3.10;;;;;;;12.87;80.52;100552.91;5063937;28;20279;-71
2021/08/18 01:36:02;;;;;;;6.23;3.10;;;;;;;12.83;80.09;100545.22;5068010;28;20453;-71
2021/08/18 01:38:28;;;;;;;8.43;3.20;;;;;;;12.80;80.56;100543.56;5062677;28;20708;-71
2021/08/18 01:40:55;;;;;;;5.73;3.20;;;;;;;12.76;80.94;100539.34;5061695;28;20231;-70
2021/08/18 01:43:23;;;;;;;5.23;3.33;;;;;;;12.74;80.83;100546.41;5060751;28;20221;-70
2021/08/18 01:45:52;;;;;;;3.77;2.80;;;;;;;12.78;81.84;100532.28;5068423;28;20213;-70
2021/08/18 01:48:21;;;;;;;4.43;3.10;;;;;;;12.74;80.90;100527.25;5061055;28;20205;-71
2021/08/18 01:50:50;;;;;;;5.30;3.23;;;;;;;12.73;80.77;100533.38;5066196;28;20225;-70
2021/08/18 01:53:17;;;;;;;5.77;3.20;;;;;;;12.69;81.17;100537.88;5061024;28;20218;-71
2021/08/18 01:59:32;;;;;;;4.90;3.23;;;;;;;12.62;81.43;100528.53;5059346;28;20953;-70
2021/08/18 02:01:59;;;;;;;5.47;3.23;;;;;;;12.62;81.34;100523.31;5059677;28;20590;-71
2021/08/18 02:04:26;;;;;;;5.60;3.00;;;;;;;12.57;80.61;100530.47;5070471;28;20201;-70
2021/08/18 02:06:52;;;;;;;5.27;2.80;;;;;;;12.55;80.84;100533.13;5058572;28;20207;-70
2021/08/18 02:09:19;;;;;;;5.43;3.30;;;;;;;12.54;81.30;100526.22;5064765;28;20299;-70
2021/08/18 02:11:45;;;;;;;5.50;2.50;;;;;;;12.52;82.10;100528.00;5062702;28;20221;-71
2021/08/18 02:14:11;;;;;;;5.53;3.20;;;;;;;12.47;81.40;100520.34;5064269;28;20210;-71
2021/08/18 02:16:38;;;;;;;5.23;2.87;;;;;;;12.51;82.29;100526.31;5067102;28;20207;-70
2021/08/18 02:19:05;;;;;;;5.23;3.20;;;;;;;12.43;81.63;100523.09;5060289;28;20480;-70
2021/08/18 02:21:32;;;;;;;4.47;3.03;;;;;;;12.41;83.07;100511.84;5070010;28;20229;-71
2021/08/18 02:23:58;;;;;;;3.93;3.20;;;;;;;12.39;83.13;100509.28;5063356;28;20572;-71
2021/08/18 02:26:25;;;;;;;4.87;3.13;;;;;;;12.32;82.73;100521.72;5065715;28;20216;-70
2021/08/18 02:28:51;;;;;;;5.30;3.20;;;;;;;12.31;83.29;100524.38;5058124;28;20199;-71
2021/08/18 02:31:17;;;;;;;5.33;2.90;;;;;;;12.29;83.50;100510.53;5066546;28;20541;-71
2021/08/18 02:33:44;;;;;;;5.63;2.97;;;;;;;12.26;82.69;100510.63;5061019;28;20693;-71
2021/08/18 02:36:11;;;;;;;4.77;2.87;;;;;;;12.21;83.46;100517.78;5068763;28;20203;-71
2021/08/18 02:38:38;;;;;;;6.40;3.07;;;;;;;12.17;83.13;100522.28;5065026;28;20199;-71
2021/08/18 02:41:04;;;;;;;5.70;3.17;;;;;;;12.17;83.82;100517.06;5057285;28;20251;-70
2021/08/18 02:43:30;;;;;;;4.20;2.90;;;;;;;12.19;84.45;100519.59;5066713;28;20227;-71
2021/08/18 02:45:57;;;;;;;4.90;2.77;;;;;;;12.14;84.84;100517.16;5061296;28;20670;-70
2021/08/18 02:48:23;;;;;;;5.57;3.00;;;;;;;12.06;84.60;100521.78;5062493;28;20217;-71
2021/08/18 02:50:50;;;;;;;4.37;3.10;;;;;;;12.01;84.54;100515.84;5066667;28;20221;-71
2021/08/18 02:53:17;;;;;;;5.27;3.03;;;;;;;12.00;84.62;100525.44;5066803;28;20716;-71
2021/08/18 02:55:44;;;;;;;5.77;3.17;;;;;;;11.97;85.97;100522.94;5063462;28;20631;-71
2021/08/18 02:58:10;;;;;;;5.43;3.40;;;;;;;11.86;85.67;100518.03;5062541;28;20199;-70
2021/08/18 03:00:37;;;;;;;6.20;3.10;;;;;;;11.79;86.41;100523.53;5061013;28;20216;-71
2021/08/18 03:03:03;;;;;;;4.97;3.20;;;;;;;11.79;87.20;100513.06;5062810;28;20231;-71
2021/08/18 03:05:29;;;;;;;4.73;2.93;;;;;;;11.67;87.39;100515.16;5066477;28;20206;-71
2021/08/18 03:07:56;;;;;;;6.83;3.43;;;;;;;11.63;87.81;100510.97;5063253;28;20211;-71
2021/08/18 03:10:24;;;;;;;5.57;3.20;;;;;;;11.55;88.52;100508.56;5064654;28;20223;-70
2021/08/18 03:12:51;;;;;;;5.10;3.20;;;;;;;11.48;87.85;100514.06;5062005;28;20626;-70
2021/08/18 03:15:17;;;;;;;5.17;3.20;;;;;;;11.41;88.84;100507.31;5063024;28;20213;-71
2021/08/18 03:17:44;;;;;;;5.37;3.50;;;;;;;11.46;90.02;100513.25;5064262;28;20194;-70
2021/08/18 03:20:11;;;;;;;4.80;2.87;;;;;;;11.41;90.46;100516.00;5065564;28;20235;-71
2021/08/18 03:22:38;;;;;;;5.17;3.23;;;;;;;11.35;89.88;100516.19;5062864;28;20212;-70
2021/08/18 03:25:06;;;;;;;3.87;2.90;;;;;;;11.25;90.71;100520.00;5061741;28;20207;-71
2021/08/18 03:27:35;;;;;;;5.17;3.27;;;;;;;11.21;90.67;100514.00;5062320;28;20669;-71
2021/08/18 03:30:01;;;;;;;7.50;3.30;;;;;;;11.15;90.53;100516.78;5058123;28;20575;-70
2021/08/18 03:32:28;;;;;;;5.70;3.40;;;;;;;11.13;91.67;100522.09;5062948;28;20559;-70
2021/08/18 03:34:54;;;;;;;5.57;3.30;;;;;;;11.20;94.13;100522.72;5063087;28;20639;-71
2021/08/18 03:37:20;;;;;;;5.67;2.83;;;;;;;11.10;93.13;100524.78;5063966;28;20215;-71
2021/08/18 03:39:47;;;;;;;5.00;3.07;;;;;;;11.08;94.49;100523.09;5056479;28;20210;-71
2021/08/18 03:42:13;;;;;;;5.63;3.23;;;;;;;11.02;93.23;100528.50;5063414;28;20218;-71
2021/08/18 03:44:41;;;;;;;4.90;3.20;;;;;;;11.04;95.68;100518.88;5066079;28;20211;-70
2021/08/18 03:47:07;;;;;;;5.60;3.40;;;;;;;10.98;94.86;100517.31;5060182;28;20207;-70
2021/08/18 03:49:33;;;;;;;6.63;3.40;;;;;;;11.01;97.40;100509.41;5064487;28;20211;-70
2021/08/18 03:52:00;;;;;;;5.83;3.67;;;;;;;10.97;96.15;100516.44;5061790;28;20217;-70
2021/08/18 03:54:26;;;;;;;5.20;3.10;;;;;;;10.96;97.24;100516.50;5067555;28;20744;-70
2021/08/18 03:56:53;;;;;;;5.80;3.40;;;;;;;10.91;97.40;100515.78;5060872;28;20207;-71
2021/08/18 03:59:19;;;;;;;6.60;3.70;;;;;;;10.78;95.98;100523.09;5067279;28;20205;-71
2021/08/18 04:01:47;;;;;;;4.73;3.33;;;;;;;10.89;98.05;100526.25;5060749;28;20813;-71
2021/08/18 04:04:13;;;;;;;5.80;3.47;;;;;;;10.83;97.58;100520.38;5058475;28;20241;-71
2021/08/18 04:06:39;;;;;;;5.43;3.57;;;;;;;10.77;97.88;100522.25;5064227;28;20206;-70
2021/08/18 04:09:06;;;;;;;7.40;3.67;;;;;;;10.76;97.14;100520.56;5060402;28;20212;-71
2021/08/18 04:11:32;;;;;;;6.53;3.63;;;;;;;10.76;96.85;100511.84;5061631;28;20677;-71
2021/08/18 04:13:59;;;;;;;6.57;3.50;;;;;;;10.83;97.39;100510.78;5060758;28;20671;-71
2021/08/18 04:16:25;;;;;;;5.97;3.37;;;;;;;10.92;97.46;100518.34;5061328;28;20233;-71
2021/08/18 04:18:53;;;;;;;5.07;3.57;;;;;;;11.01;97.52;100518.97;5057181;28;20210;-70
2021/08/18 04:21:19;;;;;;;6.03;3.30;;;;;;;11.05;96.43;100524.06;5062311;28;20210;-71
2021/08/18 04:23:46;;;;;;;8.00;3.47;;;;;;;11.14;96.18;100531.59;5056717;28;20376;-70
2021/08/18 04:26:14;;;;;;;5.33;3.50;;;;;;;11.21;96.26;100534.88;5066178;28;20691;-71
2021/08/18 04:28:40;;;;;;;6.90;3.63;;;;;;;11.31;95.68;100532.84;5057762;28;20210;-70
2021/08/18 04:31:06;;;;;;;6.10;3.30;;;;;;;11.41;95.82;100534.28;5066959;28;20702;-71
2021/08/18 04:33:33;;;;;;;5.90;3.70;;;;;;;11.49;93.98;100537.50;5056616;28;20199;-71
2021/08/18 04:36:00;;;;;;;3.73;2.87;;;;;;;11.70;96.09;100527.28;5057681;28;20216;-70
2021/08/18 04:38:27;;;;;;;5.33;3.20;;;;;;;11.65;93.83;100535.25;5061180;28;20214;-70
2021/08/18 04:40:53;;;;;;;5.60;3.00;;;;;;;11.69;93.36;100536.84;5061180;28;20234;-71
2021/08/18 04:43:20;;;;;;;4.77;3.00;;;;;;;11.74;93.43;100537.56;5057043;28;20226;-71
2021/08/18 04:45:46;;;;;;;5.50;3.13;;;;;;;11.78;93.61;100540.09;5060633;28;20213;-70
2021/08/18 04:48:13;;;;;;;5.77;3.00;;;;;;;11.82;93.60;100546.91;5065244;28;20213;-70
2021/08/18 04:50:40;;;;;;;4.13;2.93;;;;;;;11.84;92.68;100545.13;5056842;28;20222;-70
2021/08/18 04:53:09;;;;;;;5.27;3.37;;;;;;;11.96;93.17;100547.38;5064122;28;20215;-71
2021/08/18 04:55:36;;;;;;;5.73;3.17;;;;;;;12.02;91.83;100541.09;5059800;28;20252;-70
2021/08/18 04:58:02;;;;;;;3.77;2.67;;;;;;;12.15;92.46;100547.59;5066819;28;20203;-71
2021/08/18 05:00:29;;;;;;;6.00;3.10;;;;;;;12.23;91.02;100547.34;5065682;28;20623;-71
2021/08/18 05:02:55;;;;;;;5.90;3.27;;;;;;;12.26;91.24;100549.81;5061750;28;20229;-71
2021/08/18 05:05:22;;;;;;;5.70;2.80;;;;;;;12.37;91.34;100544.25;5062143;28;20202;-71
2021/08/18 05:07:48;;;;;;;5.00;3.00;;;;;;;12.39;90.26;100545.06;5060608;28;20661;-70
2021/08/18 05:10:16;;;;;;;3.53;2.50;;;;;;;12.47;90.25;100548.22;5063794;28;20260;-71
2021/08/18 05:12:42;;;;;;;3.87;2.83;;;;;;;12.55;89.76;100551.44;5060288;28;20207;-69
2021/08/18 05:15:10;;;;;;;5.37;2.80;;;;;;;12.58;89.79;100546.09;5063895;28;20217;-70
2021/08/18 05:17:36;;;;;;;4.60;3.13;;;;;;;12.57;89.59;100544.38;5066865;28;20553;-71
2021/08/18 05:20:03;;;;;;;3.73;2.80;;;;;;;12.57;88.82;100546.16;5064570;28;20589;-71
2021/08/18 05:22:29;;;;;;;3.40;2.53;;;;;;;12.61;89.16;100548.63;5062331;28;20207;-71
2021/08/18 05:24:55;;;;;;;4.30;2.80;;;;;;;12.65;89.04;100546.75;5063265;28;20212;-71
2021/08/18 05:27:23;;;;;;;4.87;2.90;;;;;;;12.75;89.29;100555.97;5065814;28;20203;-71
2021/08/18 05:29:50;;;;;;;5.33;2.40;;;;;;;12.76;89.26;100551.59;5060848;28;20210;-70
2021/08/18 05:32:16;;;;;;;8.40;2.77;;;;;;;12.71;88.84;100549.13;5068159;28;20700;-71
2021/08/18 05:34:42;;;;;;;4.60;2.93;;;;;;;12.73;88.97;100562.16;5058405;28;20597;-71
2021/08/18 05:37:09;;;;;;;5.17;3.07;;;;;;;12.69;89.24;100562.25;5061548;28;20208;-71
2021/08/18 05:39:35;;;;;;;4.13;2.80;;;;;;;12.63;88.87;100554.66;5060914;28;20209;-71
2021/08/18 05:42:01;;;;;;;4.17;3.03;;;;;;;12.67;90.39;100566.69;5064199;28;20469;-71
2021/08/18 05:44:29;;;;;;;4.57;2.73;;;;;;;12.63;89.41;100562.50;5060115;28;20767;-70
2021/08/18 05:46:56;;;;;;;4.17;2.83;;;;;;;12.64;89.64;100564.19;5063497;28;20681;-70
2021/08/18 05:49:23;;;;;;;5.37;3.13;;;;;;;12.63;89.82;100574.72;5062926;28;20655;-70
2021/08/18 05:51:50;;;;;;;4.60;3.03;;;;;;;12.64;90.12;100577.25;5063854;28;20802;-71
2021/08/18 05:54:17;;;;;;;5.33;2.83;;;;;;;12.67;89.12;100576.31;5063885;28;20209;-71
2021/08/18 05:56:43;;;;;;;5.67;3.20;;;;;;;12.79;89.76;100582.88;5061889;28;20209;-70
2021/08/18 05:59:10;;;;;;;5.10;2.97;;;;;;;12.87;88.97;100584.31;5065949;28;20208;-70
2021/08/18 06:01:37;;;;;;;5.50;3.23;;;;;;;12.93;88.49;100587.59;5058970;28;20242;-71
2021/08/18 06:04:04;;;;;;;4.83;2.83;;;;;;;13.06;89.31;100576.59;5064227;28;20221;-71
2021/08/18 06:06:30;;;;;;;4.77;3.20;;;;;;;13.26;89.78;100577.63;5063793;28;20214;-70
2021/08/18 06:08:58;;;;;;;4.70;2.90;;;;;;;13.38;88.63;100585.03;5064414;28;20210;-71
2021/08/18 06:11:24;;;;;;;4.77;2.80;;;;;;;13.44;87.00;100582.19;5066607;28;20218;-71
2021/08/18 06:13:51;;;;;;;5.47;2.87;;;;;;;13.55;86.11;100583.56;5066419;28;20212;-71
2021/08/18 06:16:17;;;;;;;4.37;2.80;;;;;;;13.70;86.33;100587.31;5061447;28;20199;-70
2021/08/18 06:18:45;;;;;;;4.87;2.93;;;;;;;13.80;85.85;100589.50;5063120;28;20210;-71
2021/08/18 06:21:12;;;;;;;8.17;3.17;;;;;;;13.86;85.49;100577.94;5062086;28;20230;-71
2021/08/18 06:23:38;;;;;;;4.33;2.63;;;;;;;13.99;85.85;100584.38;5056529;28;20229;-71
2021/08/18 06:26:04;;;;;;;5.20;3.40;;;;;;;14.05;84.75;100585.06;5062848;28;20306;-70
2021/08/18 06:28:31;;;;;;;5.47;2.80;;;;;;;14.27;84.62;100579.78;5063906;28;20205;-71
2021/08/18 06:30:57;;;;;;;5.23;3.20;;;;;;;14.31;83.08;100586.59;5063722;28;20510;-70
2021/08/18 06:33:24;;;;;;;3.60;2.70;;;;;;;14.40;84.03;100586.19;5062571;28;20205;-71
2021/08/18 06:35:52;;;;;;;5.77;2.97;;;;;;;14.53;83.52;100576.88;5065370;28;20535;-71
2021/08/18 06:38:19;;;;;;;5.33;3.00;;;;;;;14.56;81.92;100578.50;5059370;28;20203;-70
2021/08/18 06:40:45;;;;;;;4.63;3.13;;;;;;;14.57;81.85;100582.84;5060938;28;20292;-71
2021/08/18 06:43:12;;;;;;;3.57;2.50;;;;;;;14.55;81.91;100584.69;5061788;28;20211;-71
2021/08/18 06:45:38;;;;;;;3.87;2.67;;;;;;;14.59;81.65;100583.66;5061366;28;20206;-71
2021/08/18 06:48:05;;;;;;;4.70;3.07;;;;;;;14.64;81.57;100586.09;5061217;28;20245;-71
2021/08/18 06:50:32;;;;;;;3.80;2.83;;;;;;;14.69;82.08;100582.34;5064846;28;20617;-71
2021/08/18 06:53:00;;;;;;;5.00;3.20;;;;;;;14.72;80.96;100583.97;5061910;28;20210;-71
2021/08/18 06:55:26;;;;;;;4.80;3.03;;;;;;;14.81;81.40;100580.09;5060716;28;20188;-71
2021/08/18 06:57:52;;;;;;;6.07;3.00;;;;;;;14.93;80.02;100580.41;5063116;28;20208;-71
2021/08/18 07:00:20;;;;;;;4.27;2.80;;;;;;;15.11;80.50;100580.50;5061519;28;20225;-71
2021/08/18 07:02:49;;;;;;;4.63;3.10;;;;;;;15.24;80.35;100580.78;5063235;28;20258;-71
2021/08/18 07:05:16;;;;;;;3.77;2.70;;;;;;;15.40;79.83;100588.81;5063101;28;20198;-71
2021/08/18 07:07:43;;;;;;;3.63;2.50;;;;;;;15.44;79.38;100580.72;5063311;28;20211;-71
2021/08/18 07:10:12;;;;;;;3.90;2.53;;;;;;;15.40;78.10;100581.75;5059252;28;20225;-70
2021/08/18 07:12:39;;;;;;;4.10;2.40;;;;;;;15.33;78.77;100583.81;5059755;28;20211;-71
2021/08/18 07:15:07;;;;;;;3.60;2.70;;;;;;;15.37;79.02;100579.28;5066354;28;20545;-70
2021/08/18 07:17:34;;;;;;;4.47;2.90;;;;;;;15.34;79.13;100576.81;5060044;28;20207;-71
2021/08/18 07:20:00;;;;;;;3.17;2.43;;;;;;;15.39;79.86;100576.56;5060025;28;20233;-71
2021/08/18 07:22:27;;;;;;;3.60;2.70;;;;;;;15.41;78.85;100582.59;5061022;28;20683;-70
2021/08/18 07:24:55;;;;;;;4.73;2.77;;;;;;;15.40;79.13;100580.91;5063675;28;20214;-71
2021/08/18 07:27:23;;;;;;;4.13;2.60;;;;;;;15.37;79.08;100576.66;5062919;28;20265;-71
2021/08/18 07:29:49;;;;;;;4.40;2.70;;;;;;;15.34;78.59;100585.53;5063774;28;20205;-71
2021/08/18 07:32:15;;;;;;;5.70;2.80;;;;;;;15.40;79.31;100581.75;5063618;28;20202;-71
2021/08/18 07:34:42;;;;;;;4.83;2.80;;;;;;;15.37;79.73;100578.44;5063597;28;20207;-70
2021/08/18 07:37:08;;;;;;;4.40;2.80;;;;;;;15.37;79.29;100578.44;5069661;28;20685;-71
2021/08/18 07:39:35;;;;;;;4.70;2.60;;;;;;;15.45;79.63;100573.69;5060912;28;20215;-71
2021/08/18 07:42:01;;;;;;;2.90;2.30;;;;;;;15.53;78.28;100577.66;5067296;28;20213;-71
2021/08/18 07:44:29;;;;;;;4.43;2.83;;;;;;;15.60;77.80;100578.22;5060630;28;20225;-70
2021/08/18 07:46:55;;;;;;;4.13;2.80;;;;;;;15.75;77.83;100587.16;5064186;28;20293;-71
2021/08/18 07:49:22;;;;;;;4.10;2.50;;;;;;;15.74;77.38;100590.66;5062166;28;20292;-71
2021/08/18 07:51:48;;;;;;;3.70;2.50;;;;;;;15.77;77.20;100580.03;5059872;28;20230;-71
2021/08/18 07:54:14;;;;;;;5.87;2.70;;;;;;;15.97;77.48;100584.34;5062179;28;20210;-71
2021/08/18 07:56:41;;;;;;;3.97;2.50;;;;;;;16.25;77.06;100585.56;5061759;28;20206;-71
2021/08/18 07:59:07;;;;;;;4.00;2.27;;;;;;;16.44;75.56;100585.50;5062913;28;20522;-70
2021/08/18 08:01:35;;;;;;;4.07;2.40;;;;;;;16.49;74.68;100588.75;5058045;28;20318;-71
2021/08/18 08:04:02;;;;;;;4.47;2.47;;;;;;;16.45;73.90;100585.44;5061043;28;20215;-72
2021/08/18 08:06:29;;;;;;;3.47;2.07;;;;;;;16.65;75.77;100581.75;5062180;28;20213;-71
2021/08/18 08:08:55;;;;;;;3.83;2.37;;;;;;;16.83;75.41;100587.88;5073874;28;20205;-71
2021/08/18 08:11:21;;;;;;;3.87;2.30;;;;;;;16.75;73.38;100592.66;5062178;28;20225;-71
2021/08/18 08:13:48;;;;;;;4.17;2.37;;;;;;;16.78;74.61;100586.38;5064562;28;20211;-71
2021/08/18 08:16:14;;;;;;;4.33;2.27;;;;;;;17.03;74.65;100585.97;5062368;28;20199;-71
2021/08/18 08:18:42;;;;;;;4.33;2.27;;;;;;;17.16;73.06;100589.63;5060934;28;20613;-71
2021/08/18 08:21:08;;;;;;;2.67;2.13;;;;;;;17.25;72.49;100590.06;5057691;28;20222;-70
2021/08/18 08:23:35;;;;;;;4.23;2.43;;;;;;;17.12;72.32;100595.16;5056666;28;20213;-71
2021/08/18 08:26:01;;;;;;;4.40;2.67;;;;;;;17.03;72.22;100586.81;5062067;28;20214;-71
2021/08/18 08:28:27;;;;;;;3.93;2.27;;;;;;;17.09;73.53;100590.91;5057850;28;20223;-71
2021/08/18 08:30:54;;;;;;;3.60;2.23;;;;;;;17.05;72.55;100596.44;5064735;28;20226;-71
2021/08/18 08:33:20;;;;;;;5.57;2.33;;;;;;;17.30;73.40;100590.66;5058291;28;20231;-72
2021/08/18 08:35:48;;;;;;;2.90;2.23;;;;;;;17.73;72.97;100585.63;5064636;28;20214;-72
2021/08/18 08:38:16;;;;;;;3.30;2.23;;;;;;;17.81;70.97;100587.84;5060825;28;20698;-71
2021/08/18 08:40:43;;;;;;;3.67;2.10;;;;;;;17.68;71.25;100578.00;5060374;28;20232;-71
2021/08/18 08:43:10;;;;;;;3.83;2.20;;;;;;;17.89;72.15;100572.47;5060731;28;20204;-71
2021/08/18 08:45:36;;;;;;;3.47;2.40;;;;;;;18.02;69.61;100573.44;5059016;28;20229;-71
2021/08/18 08:48:03;;;;;;;3.07;2.10;;;;;;;18.26;70.47;100572.97;5063938;28;20195;-71
2021/08/18 08:50:30;;;;;;;3.27;2.10;;;;;;;18.55;70.47;100569.41;5059911;28;20237;-71
2021/08/18 08:52:58;;;;;;;2.77;1.97;;;;;;;18.55;69.51;100574.69;5063082;28;20743;-71
2021/08/18 08:55:24;;;;;;;2.77;1.90;;;;;;;18.67;67.74;100570.47;5062649;28;20201;-71
2021/08/18 08:57:53;;;;;;;3.10;2.17;;;;;;;18.78;67.46;100577.72;5065756;28;20210;-72
2021/08/18 09:00:20;;;;;;;2.30;1.60;;;;;;;18.92;66.66;100571.63;5061538;28;20643;-72
2021/08/18 09:02:47;;;;;;;2.77;1.77;;;;;;;19.10;66.95;100569.63;5065453;28;20305;-71
2021/08/18 09:05:25;;;;;;;3.03;2.30;;;;;;;19.17;66.12;100572.75;5063649;28;20226;-71
2021/08/18 09:07:58;;;;;;;2.00;1.77;;;;;;;19.12;65.67;100570.41;5060077;28;20209;-72
2021/08/18 09:10:25;;;;;;;2.60;1.50;;;;;;;19.07;65.91;100557.47;5068629;28;20229;-71
2021/08/18 09:12:52;;;;;;;3.00;1.60;;;;;;;19.24;66.26;100564.34;5059591;28;20679;-71
2021/08/18 09:15:20;;;;;;;2.73;2.00;;;;;;;19.21;66.12;100561.06;5065546;28;20714;-72
2021/08/18 09:17:48;;;;;;;5.20;2.00;;;;;;;19.22;64.78;100566.22;5060402;28;20233;-71
2021/08/18 09:20:17;;;;;;;2.63;2.00;;;;;;;19.20;65.29;100565.47;5059100;28;20861;-71
2021/08/18 09:22:46;;;;;;;3.77;2.63;;;;;;;19.13;64.79;100558.03;5061889;28;20205;-71
2021/08/18 09:25:17;;;;;;;2.93;1.93;;;;;;;19.37;65.32;100558.28;5056502;28;20219;-71
2021/08/18 09:27:46;;;;;;;2.73;1.93;;;;;;;19.43;64.83;100561.34;5062567;28;20199;-71
2021/08/18 09:30:25;;;;;;;3.03;1.60;;;;;;;19.54;63.50;100555.41;5059671;28;20223;-72
2021/08/18 09:32:52;;;;;;;2.70;1.83;;;;;;;19.88;63.35;100547.09;5065724;28;20202;-72
2021/08/18 09:35:20;;;;;;;2.53;2.00;;;;;;;19.60;62.94;100552.34;5058262;28;20249;-71
2021/08/18 09:37:55;;;;;;;1.90;1.23;;;;;;;19.49;62.81;100557.50;5063489;28;20200;-72
2021/08/18 09:40:25;;;;;;;1.80;1.40;;;;;;;19.40;62.45;100553.66;5056608;28;20230;-71
2021/08/18 09:42:53;;;;;;;1.97;1.40;;;;;;;19.62;63.54;100561.03;5062977;28;20206;-71
2021/08/18 09:45:23;;;;;;;4.17;1.63;;;;;;;19.51;61.68;100554.72;5064115;28;20217;-71
2021/08/18 09:47:55;;;;;;;1.57;1.27;;;;;;;19.37;62.13;100551.19;5060373;28;20205;-71
2021/08/18 09:50:23;;;;;;;2.07;1.40;;;;;;;19.44;63.23;100541.91;5064842;28;20222;-71
2021/08/18 09:52:51;;;;;;;1.43;1.30;;;;;;;19.47;62.67;100546.16;5062683;28;20249;-71
2021/08/18 09:55:23;;;;;;;1.60;1.50;;;;;;;19.44;61.96;100547.19;5064511;28;20202;-71
2021/08/18 09:57:50;;;;;;;2.10;1.40;;;;;;;19.33;62.61;100541.78;5063668;28;20581;-71
2021/08/18 10:00:17;;;;;;;2.60;1.40;;;;;;;19.17;62.76;100539.25;5062744;28;20703;-71
2021/08/18 10:02:44;;;;;;;1.77;1.33;;;;;;;19.19;64.19;100534.72;5064944;28;20694;-71
2021/08/18 10:05:12;;;;;;;1.47;1.17;;;;;;;19.19;63.54;100541.78;5062621;28;20223;-71
2021/08/18 10:07:39;;;;;;;1.23;1.10;;;;;;;19.08;64.29;100529.25;5073352;28;20208;-71
2021/08/18 10:10:06;;;;;;;1.30;1.10;;;;;;;18.81;64.32;100537.94;5064490;28;20230;-71
2021/08/18 10:12:34;;;;;;;1.43;1.00;;;;;;;18.90;65.24;100531.25;5066630;28;20203;-70
2021/08/18 10:15:01;;;;;;;1.50;1.17;;;;;;;19.03;64.38;100532.19;5061700;28;20191;-71
2021/08/18 10:17:30;;;;;;;2.37;1.60;;;;;;;19.12;65.94;100530.78;5069736;28;20206;-71
2021/08/18 10:19:57;;;;;;;2.87;1.90;;;;;;;19.09;64.89;100531.81;5062621;28;20234;-71
2021/08/18 10:22:25;;;;;;;2.37;1.70;;;;;;;19.04;64.92;100530.41;5064025;28;20199;-71
2021/08/18 10:24:52;;;;;;;2.13;1.53;;;;;;;18.85;64.71;100526.25;5067341;28;20218;-71
2021/08/18 10:27:47;;;;;;;2.83;2.20;;;;;;;18.88;65.01;100523.44;5062594;28;20622;-71
2021/08/18 10:30:21;;;;;;;2.43;1.50;;;;;;;18.72;66.49;100522.66;5066004;28;20234;-70
2021/08/18 10:32:47;;;;;;;1.87;1.10;;;;;;;18.73;66.82;100503.22;5059918;28;20206;-71
2021/08/18 10:35:44;;;;;;;2.03;1.10;;;;;;;18.80;67.26;100506.34;5064444;28;20206;-71
2021/08/18 10:38:34;;;;;;;1.30;1.20;;;;;;;18.66;66.61;100509.81;5063737;28;20210;-71
2021/08/18 10:41:01;;;;;;;1.50;1.40;;;;;;;18.63;66.49;100510.03;5062504;28;20226;-71
2021/08/18 10:43:55;;;;;;;2.57;1.20;;;;;;;18.61;67.25;100515.41;5069221;28;20210;-71
2021/08/18 10:46:22;;;;;;;1.67;1.20;;;;;;;18.72;66.56;100510.31;5064782;28;20217;-71
2021/08/18 10:49:03;;;;;;;1.47;1.20;;;;;;;18.81;65.65;100513.31;5068292;28;20206;-71
2021/08/18 10:51:52;;;;;;;1.53;1.23;;;;;;;18.82;64.50;100515.03;5062698;28;20295;-72
2021/08/18 10:54:41;;;;;;;1.60;1.20;;;;;;;18.86;65.51;100511.28;5064120;28;20207;-71
2021/08/18 10:57:34;;;;;;;1.33;1.10;;;;;;;19.15;65.25;100508.56;5065091;28;20211;-71
2021/08/18 11:00:09;;;;;;;4.50;1.30;;;;;;;19.41;65.21;100515.66;5066050;28;20225;-71
2021/08/18 11:02:51;;;;;;;1.30;1.00;;;;;;;19.62;63.60;100515.22;5065366;28;20209;-71
2021/08/18 11:05:18;;;;;;;1.37;1.13;;;;;;;19.67;64.11;100524.53;5062689;28;20309;-71
2021/08/18 11:08:08;;;;;;;1.30;1.17;;;;;;;19.54;64.02;100523.69;5059653;28;20559;-72
2021/08/18 11:10:38;;;;;;;1.50;1.27;;;;;;;19.47;64.16;100527.63;5065343;28;20226;-70
2021/08/18 11:13:06;;;;;;;1.87;1.07;;;;;;;19.58;63.71;100532.25;5063056;28;20203;-72
2021/08/18 11:15:51;;;;;;;1.00;0.90;;;;;;;19.61;63.16;100530.25;5067711;28;20264;-71
2021/08/18 11:18:19;;;;;;;3.50;1.00;;;;;;;19.57;63.58;100528.75;5064655;28;20202;-71
2021/08/18 11:20:47;;;;;;;1.37;1.10;;;;;;;19.59;63.49;100518.06;5059408;28;20223;-71
2021/08/18 11:23:15;;;;;;;1.30;1.07;;;;;;;19.74;63.26;100511.81;5063949;28;20202;-71
2021/08/18 11:25:42;;;;;;;1.20;1.00;;;;;;;19.90;63.67;100513.44;5060802;28;20214;-71
2021/08/18 11:28:09;;;;;;;1.03;0.90;;;;;;;19.97;62.86;100502.31;5065420;28;20557;-71
2021/08/18 11:30:35;;;;;;;1.30;1.10;;;;;;;20.21;63.60;100496.31;5066089;28;20305;-70